Bedford, MA

9:31 AM EST on January 28, 2015 (GMT -0500)
Old Depot Area | Change Station
CLOSE
Current Station
Personal Weather Station
Location: Bedford, MA
Elevation: 130 ft
Nearby Weather Stations

Elev 130 ft 42.49 °N, 71.28 °W | Updated 7 seconds ago

Overcast
Overcast
20.2 °F
Feels Like 20 °F
N
2.7
Wind Variable Wind from NNW
Gusts 2.7 mph

Today
High -- | Low -- °F
--% Chance of Precip.
Yesterday
High -- | Low -- °F
Precip. -- in
7:03 AM 4:53 PM
Waxing Gibbous, 65% visible
Pressure 29.99 in
Visibility 10.0 miles
Clouds Overcast 5500 ft
Windchill 20 °F
Dew Point 10 °F
Humidity 64%
Rainfall 0.00 in
Snow Depth Not available.
UV 0 out of 12
Pollen .10 out of 12
Air Quality Not available.
Flu Activity Not available.
METAR KBED 281356Z 32012G19KT 10SM OVC055 M10/M17 A2993 RMK AO2 SLP153 T11001167

More Conditions Fewer Conditions

Pressure 29.99 in
Visibility 10.0 miles
Clouds Overcast 5500 ft
Windchill 20 °F
Dew Point 10 °F
Humidity 64%
Rainfall 0.00 in
Snow Depth Not available.
UV 0 out of 12
Pollen .10 out of 12
Air Quality Not available.
Flu Activity Not available.
METAR KBED 281356Z 32012G19KT 10SM OVC055 M10/M17 A2993 RMK AO2 SLP153 T11001167

More Conditions Fewer Conditions

10-Day Weather Forecast

Almanac

Astronomy

Jan. 28, 2015 Rise Set
Actual Time
Civil Twilight
Nautical Twilight
Astronomical Twilight
Moon
Length of Visible Light
Length of Day
Tomorrow will be .
, % of the Moon is Illuminated

Today's Extremes

State Highs State Lows

Community

WunderPhotos

Upload Photos

1,791,156 photos uploaded!

WunderBlogs® & News

Nearby

Air Quality

  Air Quality AQ Index Pollutant
Not available.

Snow Depth

Station Depth Elevation

Earthquake Activity

City Distance Mag. Time & Date
Minimum magnitude displayed is 2.5.

Coastal Water Temperatures

Place Temperature

Nearby Weather Stations